Flight Number: EUR1034 Duration: 2:30
Departure: Gibraltar Airport (LXGB) at 18:15 Distance: 927 Nm
Arrival: Gatwick Airport (EGKK) at 20:45 Equipment: B737

Weather Information
Gibraltar, Gibraltar (LXGB) 36-09N 005-21W 0M Nov 19, 2017 - 09:50 PM EST / 2017.11.20 0250 UTC
Wind: from the ENE (060 degrees) at 17 MPH (15 KT):0
Visibility: greater than 7 mile(s):0
Sky conditions: mostly clear Temperature: 60 F (16 C) Dew Point: 59 F (15 C) Relative Humidity: 93% Pressure (altimeter): 30.15 in. Hg (1021 hPa)
ob: LXGB 200250Z AUTO 06015KT 9999 // FEW015/// 16/15 Q1021 cycle: 3
Sunrise: 07:07 Sunset: 17:07 (UTC)

London / Gatwick Airport, United Kingdom (EGKK) 51-09N 000-11W 0M Nov 19, 2017 - 10:50 PM EST / 2017.11.20 0350 UTC
Wind: Variable at 2 MPH (2 KT):0
Visibility: greater than 7 mile(s):0
Sky conditions: mostly cloudy Temperature: 41 F (5 C) Dew Point: 39 F (4 C) Relative Humidity: 93% Pressure (altimeter): 30.09 in. Hg (1019 hPa)
ob: EGKK 200350Z VRB02KT 9999 BKN013 05/04 Q1019 cycle: 4
Sunrise: 07:31 Sunset: 16:01 (UTC)

TAF:2017/11/20 03:31 TAF AMD EGKK 200311Z 2003/2106 VRB03KT 9999 BKN025 TEMPO 2003/2014 BKN013 PROB30 TEMPO 2003/2006 7000 -RADZ BKN008 BECMG 2006/2009 24010KT BECMG 2014/2017 BKN012 TEMPO 2014/2103 8000 -RA PROB40 TEMPO 2021/2103 4000 RADZ BKN006 BECMG 2103/2106 BKN025

Previous Pireps for this route
Date Aircraft Flight time Fuel used Landing rate On time
2012-07-22A3212.34352320Yes
2012-10-22A32102.320-976No
2012-10-30B73702.3515895-108No
2012-12-08B73703.0326366-334No
2012-12-11B7373.30177380No
2012-12-19B73702.4013457-575Yes
2013-02-23A32102.4723871-578Yes
2013-03-06A3212.2615429-317No
2013-03-08A32102.3019660-345Yes
2013-08-24A32102.5818907-216No
2013-09-19A3212100670No
2013-11-05A32103.0318549-516No
2015-01-04B7372,30150000Yes
2015-05-28A3212.4213020No
2015-12-07A32102.2423115-155No
2016-01-02A32102.3514533-41Yes
2016-07-26A3212.0320203.80No
2016-10-19B73702.3722283-201No
2017-01-21B73702.2319792-121Yes
(pireps marked green are flown by you)

Route map